sensor_id;sensor_type;location;lat;lon;timestamp;temperature;humidity
7399;DHT22;3740;50.700;7.184;2022-12-18T00:02:21;-3.10;99.90
7399;DHT22;3740;50.700;7.184;2022-12-18T00:04:47;-3.10;99.90
7399;DHT22;3740;50.700;7.184;2022-12-18T00:07:12;-3.10;99.90
7399;DHT22;3740;50.700;7.184;2022-12-18T00:09:38;-3.20;99.90
7399;DHT22;3740;50.700;7.184;2022-12-18T00:12:04;-3.10;99.90
7399;DHT22;3740;50.700;7.184;2022-12-18T00:14:29;-3.20;99.90
7399;DHT22;3740;50.700;7.184;2022-12-18T00:16:55;-3.20;99.90
7399;DHT22;3740;50.700;7.184;2022-12-18T00:19:20;-3.20;99.90
7399;DHT22;3740;50.700;7.184;2022-12-18T00:21:46;-3.20;99.90
7399;DHT22;3740;50.700;7.184;2022-12-18T00:24:12;-3.20;99.90
7399;DHT22;3740;50.700;7.184;2022-12-18T00:26:39;-3.20;99.90
7399;DHT22;3740;50.700;7.184;2022-12-18T00:29:09;-3.20;99.90
7399;DHT22;3740;50.700;7.184;2022-12-18T00:31:35;-3.20;99.90
7399;DHT22;3740;50.700;7.184;2022-12-18T00:34:01;-3.20;99.90
7399;DHT22;3740;50.700;7.184;2022-12-18T00:36:29;-3.30;99.90
7399;DHT22;3740;50.700;7.184;2022-12-18T00:38:56;-3.40;99.90
7399;DHT22;3740;50.700;7.184;2022-12-18T00:41:23;-3.50;99.90
7399;DHT22;3740;50.700;7.184;2022-12-18T00:44:10;-3.50;99.90
7399;DHT22;3740;50.700;7.184;2022-12-18T00:46:36;-3.90;99.90
7399;DHT22;3740;50.700;7.184;2022-12-18T00:49:01;-3.60;99.90
7399;DHT22;3740;50.700;7.184;2022-12-18T00:51:27;-3.60;99.90
7399;DHT22;3740;50.700;7.184;2022-12-18T00:53:53;-3.60;99.90
7399;DHT22;3740;50.700;7.184;2022-12-18T00:56:22;-3.70;99.90
7399;DHT22;3740;50.700;7.184;2022-12-18T00:58:48;-3.80;99.90
7399;DHT22;3740;50.700;7.184;2022-12-18T01:01:15;-3.70;99.90
7399;DHT22;3740;50.700;7.184;2022-12-18T01:03:40;-3.60;99.90
7399;DHT22;3740;50.700;7.184;2022-12-18T01:06:10;-3.60;99.90
7399;DHT22;3740;50.700;7.184;2022-12-18T01:08:37;-3.60;99.90
7399;DHT22;3740;50.700;7.184;2022-12-18T01:11:11;-3.70;99.90
7399;DHT22;3740;50.700;7.184;2022-12-18T01:13:38;-3.80;99.90
7399;DHT22;3740;50.700;7.184;2022-12-18T01:16:04;-3.70;99.90
7399;DHT22;3740;50.700;7.184;2022-12-18T01:18:30;-3.70;99.90
7399;DHT22;3740;50.700;7.184;2022-12-18T01:20:56;-3.70;99.90
7399;DHT22;3740;50.700;7.184;2022-12-18T01:23:21;-3.70;99.90
7399;DHT22;3740;50.700;7.184;2022-12-18T01:25:47;-3.80;99.90
7399;DHT22;3740;50.700;7.184;2022-12-18T01:28:12;-3.80;99.90
7399;DHT22;3740;50.700;7.184;2022-12-18T01:30:38;-3.90;99.90
7399;DHT22;3740;50.700;7.184;2022-12-18T01:33:05;-4.00;99.90
7399;DHT22;3740;50.700;7.184;2022-12-18T01:35:31;-3.90;99.90
7399;DHT22;3740;50.700;7.184;2022-12-18T01:37:56;-3.90;99.90
7399;DHT22;3740;50.700;7.184;2022-12-18T01:40:22;-3.80;99.90
7399;DHT22;3740;50.700;7.184;2022-12-18T01:42:54;-3.80;99.90
7399;DHT22;3740;50.700;7.184;2022-12-18T01:45:26;-3.80;99.90
7399;DHT22;3740;50.700;7.184;2022-12-18T01:48:08;-3.70;99.90
7399;DHT22;3740;50.700;7.184;2022-12-18T01:50:41;-3.70;99.90
7399;DHT22;3740;50.700;7.184;2022-12-18T01:53:12;-3.70;99.90
7399;DHT22;3740;50.700;7.184;2022-12-18T01:55:48;-3.80;99.90
7399;DHT22;3740;50.700;7.184;2022-12-18T01:58:16;-3.80;99.90
7399;DHT22;3740;50.700;7.184;2022-12-18T02:00:42;-3.80;99.90
7399;DHT22;3740;50.700;7.184;2022-12-18T02:03:08;-3.90;99.90
7399;DHT22;3740;50.700;7.184;2022-12-18T02:06:13;-3.90;99.90
7399;DHT22;3740;50.700;7.184;2022-12-18T02:13:53;-3.90;99.90
7399;DHT22;3740;50.700;7.184;2022-12-18T02:16:52;-3.90;99.90
7399;DHT22;3740;50.700;7.184;2022-12-18T02:19:38;-3.80;99.90
7399;DHT22;3740;50.700;7.184;2022-12-18T02:24:55;-3.90;99.90
7399;DHT22;3740;50.700;7.184;2022-12-18T02:27:24;-3.90;99.90
7399;DHT22;3740;50.700;7.184;2022-12-18T02:29:57;-3.90;99.90
7399;DHT22;3740;50.700;7.184;2022-12-18T02:32:27;-3.80;99.90
7399;DHT22;3740;50.700;7.184;2022-12-18T02:34:56;-3.70;99.90
7399;DHT22;3740;50.700;7.184;2022-12-18T02:37:23;-3.80;99.90
7399;DHT22;3740;50.700;7.184;2022-12-18T02:39:53;-3.80;99.90
7399;DHT22;3740;50.700;7.184;2022-12-18T02:42:19;-3.70;99.90
7399;DHT22;3740;50.700;7.184;2022-12-18T02:44:48;-3.80;99.90
7399;DHT22;3740;50.700;7.184;2022-12-18T02:47:16;-3.80;99.90
7399;DHT22;3740;50.700;7.184;2022-12-18T02:50:11;-3.80;99.90
7399;DHT22;3740;50.700;7.184;2022-12-18T02:53:14;-3.80;99.90
7399;DHT22;3740;50.700;7.184;2022-12-18T03:04:15;-3.90;99.90
7399;DHT22;3740;50.700;7.184;2022-12-18T03:06:46;-3.90;99.90
7399;DHT22;3740;50.700;7.184;2022-12-18T03:09:18;-3.90;99.90
7399;DHT22;3740;50.700;7.184;2022-12-18T03:11:48;-3.90;99.90
7399;DHT22;3740;50.700;7.184;2022-12-18T03:14:36;-3.90;99.90
7399;DHT22;3740;50.700;7.184;2022-12-18T03:17:06;-4.00;99.90
7399;DHT22;3740;50.700;7.184;2022-12-18T03:19:34;-4.00;99.90
7399;DHT22;3740;50.700;7.184;2022-12-18T03:22:38;-4.10;99.90
7399;DHT22;3740;50.700;7.184;2022-12-18T03:25:07;-4.20;99.90
7399;DHT22;3740;50.700;7.184;2022-12-18T03:27:34;-4.10;99.90
7399;DHT22;3740;50.700;7.184;2022-12-18T03:30:04;-4.10;99.90
7399;DHT22;3740;50.700;7.184;2022-12-18T03:32:49;-4.00;99.90
7399;DHT22;3740;50.700;7.184;2022-12-18T03:35:20;-3.90;99.90
7399;DHT22;3740;50.700;7.184;2022-12-18T03:37:47;-4.00;99.90
7399;DHT22;3740;50.700;7.184;2022-12-18T03:40:12;-4.00;99.90
7399;DHT22;3740;50.700;7.184;2022-12-18T03:42:51;-4.10;99.90
7399;DHT22;3740;50.700;7.184;2022-12-18T03:45:30;-4.10;99.90
7399;DHT22;3740;50.700;7.184;2022-12-18T03:48:28;-4.20;99.90
7399;DHT22;3740;50.700;7.184;2022-12-18T03:51:11;-4.10;99.90
7399;DHT22;3740;50.700;7.184;2022-12-18T03:53:52;-4.20;99.90
7399;DHT22;3740;50.700;7.184;2022-12-18T03:56:20;-4.20;99.90
7399;DHT22;3740;50.700;7.184;2022-12-18T03:58:47;-4.30;99.90
7399;DHT22;3740;50.700;7.184;2022-12-18T04:01:14;-4.40;99.90
7399;DHT22;3740;50.700;7.184;2022-12-18T04:03:42;-4.50;99.90
7399;DHT22;3740;50.700;7.184;2022-12-18T04:06:08;-4.30;99.90
7399;DHT22;3740;50.700;7.184;2022-12-18T04:08:35;-4.40;99.90
7399;DHT22;3740;50.700;7.184;2022-12-18T04:11:02;-4.30;99.90
7399;DHT22;3740;50.700;7.184;2022-12-18T04:13:31;-4.30;99.90
7399;DHT22;3740;50.700;7.184;2022-12-18T04:15:57;-4.30;99.90
7399;DHT22;3740;50.700;7.184;2022-12-18T04:18:22;-4.30;99.90
7399;DHT22;3740;50.700;7.184;2022-12-18T04:20:48;-4.30;99.90
7399;DHT22;3740;50.700;7.184;2022-12-18T04:23:14;-4.40;99.90
7399;DHT22;3740;50.700;7.184;2022-12-18T04:25:39;-4.40;99.90
7399;DHT22;3740;50.700;7.184;2022-12-18T04:28:05;-4.40;99.90
7399;DHT22;3740;50.700;7.184;2022-12-18T04:30:30;-4.40;99.90
7399;DHT22;3740;50.700;7.184;2022-12-18T04:32:56;-4.30;99.90
7399;DHT22;3740;50.700;7.184;2022-12-18T04:35:21;-4.40;99.90
7399;DHT22;3740;50.700;7.184;2022-12-18T04:37:47;-4.50;99.90
7399;DHT22;3740;50.700;7.184;2022-12-18T04:40:12;-4.40;99.90
7399;DHT22;3740;50.700;7.184;2022-12-18T04:42:39;-4.50;99.90
7399;DHT22;3740;50.700;7.184;2022-12-18T04:45:06;-4.50;99.90
7399;DHT22;3740;50.700;7.184;2022-12-18T04:47:32;-4.50;99.90
7399;DHT22;3740;50.700;7.184;2022-12-18T04:49:57;-4.50;99.90
7399;DHT22;3740;50.700;7.184;2022-12-18T04:52:23;-4.60;99.90
7399;DHT22;3740;50.700;7.184;2022-12-18T04:54:48;-4.60;99.90
7399;DHT22;3740;50.700;7.184;2022-12-18T04:57:14;-4.60;99.90
7399;DHT22;3740;50.700;7.184;2022-12-18T04:59:39;-4.70;99.90
7399;DHT22;3740;50.700;7.184;2022-12-18T05:02:05;-4.60;99.90
7399;DHT22;3740;50.700;7.184;2022-12-18T05:04:30;-4.70;99.90
7399;DHT22;3740;50.700;7.184;2022-12-18T05:06:56;-4.70;99.90
7399;DHT22;3740;50.700;7.184;2022-12-18T05:09:22;-4.70;99.90
7399;DHT22;3740;50.700;7.184;2022-12-18T05:11:48;-4.80;99.90
7399;DHT22;3740;50.700;7.184;2022-12-18T05:14:13;-4.80;99.90
7399;DHT22;3740;50.700;7.184;2022-12-18T05:16:39;-4.70;99.90
7399;DHT22;3740;50.700;7.184;2022-12-18T05:19:04;-4.80;99.90
7399;DHT22;3740;50.700;7.184;2022-12-18T05:21:30;-5.00;99.90
7399;DHT22;3740;50.700;7.184;2022-12-18T05:23:55;-5.10;99.90
7399;DHT22;3740;50.700;7.184;2022-12-18T05:26:21;-5.00;99.90
7399;DHT22;3740;50.700;7.184;2022-12-18T05:28:46;-5.10;99.90
7399;DHT22;3740;50.700;7.184;2022-12-18T05:31:13;-5.00;99.90
7399;DHT22;3740;50.700;7.184;2022-12-18T05:33:39;-5.10;99.90
7399;DHT22;3740;50.700;7.184;2022-12-18T05:36:06;-5.20;99.90
7399;DHT22;3740;50.700;7.184;2022-12-18T05:38:35;-5.20;99.90
7399;DHT22;3740;50.700;7.184;2022-12-18T05:41:00;-5.10;99.90
7399;DHT22;3740;50.700;7.184;2022-12-18T05:43:27;-5.10;99.90
7399;DHT22;3740;50.700;7.184;2022-12-18T05:45:52;-5.10;99.90
7399;DHT22;3740;50.700;7.184;2022-12-18T05:48:18;-5.00;99.90
7399;DHT22;3740;50.700;7.184;2022-12-18T05:50:45;-5.00;99.90
7399;DHT22;3740;50.700;7.184;2022-12-18T05:53:12;-5.10;99.90
7399;DHT22;3740;50.700;7.184;2022-12-18T05:55:40;-5.10;99.90
7399;DHT22;3740;50.700;7.184;2022-12-18T05:58:07;-5.00;99.90
7399;DHT22;3740;50.700;7.184;2022-12-18T06:00:35;-5.00;99.90
7399;DHT22;3740;50.700;7.184;2022-12-18T06:03:01;-5.00;99.90
7399;DHT22;3740;50.700;7.184;2022-12-18T06:05:27;-5.00;99.90
7399;DHT22;3740;50.700;7.184;2022-12-18T06:07:53;-5.10;99.90
7399;DHT22;3740;50.700;7.184;2022-12-18T06:10:18;-5.00;99.90
7399;DHT22;3740;50.700;7.184;2022-12-18T06:12:44;-4.90;99.90
7399;DHT22;3740;50.700;7.184;2022-12-18T06:15:10;-4.90;99.90
7399;DHT22;3740;50.700;7.184;2022-12-18T06:17:36;-4.80;99.90
7399;DHT22;3740;50.700;7.184;2022-12-18T06:20:02;-4.90;99.90
7399;DHT22;3740;50.700;7.184;2022-12-18T06:22:28;-4.90;99.90
7399;DHT22;3740;50.700;7.184;2022-12-18T06:24:55;-4.80;99.90
7399;DHT22;3740;50.700;7.184;2022-12-18T06:27:21;-4.70;99.90
7399;DHT22;3740;50.700;7.184;2022-12-18T06:29:46;-4.80;99.90
7399;DHT22;3740;50.700;7.184;2022-12-18T06:32:13;-4.90;99.90
7399;DHT22;3740;50.700;7.184;2022-12-18T06:34:38;-4.80;99.90
7399;DHT22;3740;50.700;7.184;2022-12-18T06:37:04;-4.80;99.90
7399;DHT22;3740;50.700;7.184;2022-12-18T06:39:30;-5.10;99.90
7399;DHT22;3740;50.700;7.184;2022-12-18T06:41:55;-4.70;99.90
7399;DHT22;3740;50.700;7.184;2022-12-18T06:44:21;-4.60;99.90
7399;DHT22;3740;50.700;7.184;2022-12-18T06:46:46;-4.60;99.90
7399;DHT22;3740;50.700;7.184;2022-12-18T06:49:12;-4.50;99.90
7399;DHT22;3740;50.700;7.184;2022-12-18T06:51:38;-4.60;99.90
7399;DHT22;3740;50.700;7.184;2022-12-18T06:54:03;-4.70;99.90
7399;DHT22;3740;50.700;7.184;2022-12-18T06:56:29;-4.80;99.90
7399;DHT22;3740;50.700;7.184;2022-12-18T06:58:55;-4.80;99.90
7399;DHT22;3740;50.700;7.184;2022-12-18T07:01:21;-4.90;99.90
7399;DHT22;3740;50.700;7.184;2022-12-18T07:03:46;-4.80;99.90
7399;DHT22;3740;50.700;7.184;2022-12-18T07:06:20;-4.80;99.90
7399;DHT22;3740;50.700;7.184;2022-12-18T07:08:47;-4.60;99.90
7399;DHT22;3740;50.700;7.184;2022-12-18T07:11:13;-4.60;99.90
7399;DHT22;3740;50.700;7.184;2022-12-18T07:13:39;-4.40;99.90
7399;DHT22;3740;50.700;7.184;2022-12-18T07:16:16;-4.30;99.90
7399;DHT22;3740;50.700;7.184;2022-12-18T07:18:42;-4.20;99.90
7399;DHT22;3740;50.700;7.184;2022-12-18T07:21:10;-4.20;99.90
7399;DHT22;3740;50.700;7.184;2022-12-18T07:23:36;-4.20;99.90
7399;DHT22;3740;50.700;7.184;2022-12-18T07:26:12;-4.20;99.90
7399;DHT22;3740;50.700;7.184;2022-12-18T07:28:38;-4.30;99.90
7399;DHT22;3740;50.700;7.184;2022-12-18T07:31:13;-4.40;99.90
7399;DHT22;3740;50.700;7.184;2022-12-18T07:33:40;-4.50;99.90
7399;DHT22;3740;50.700;7.184;2022-12-18T07:36:07;-4.60;99.90
7399;DHT22;3740;50.700;7.184;2022-12-18T07:38:34;-4.60;99.90
7399;DHT22;3740;50.700;7.184;2022-12-18T07:41:11;-4.70;99.90
7399;DHT22;3740;50.700;7.184;2022-12-18T07:43:37;-4.70;99.90
7399;DHT22;3740;50.700;7.184;2022-12-18T07:46:03;-4.70;99.90
7399;DHT22;3740;50.700;7.184;2022-12-18T07:48:29;-4.80;99.90
7399;DHT22;3740;50.700;7.184;2022-12-18T07:51:02;-4.80;99.90
7399;DHT22;3740;50.700;7.184;2022-12-18T07:53:28;-4.70;99.90
7399;DHT22;3740;50.700;7.184;2022-12-18T07:56:04;-4.80;99.90
7399;DHT22;3740;50.700;7.184;2022-12-18T07:58:30;-4.80;99.90
7399;DHT22;3740;50.700;7.184;2022-12-18T08:01:25;-4.70;99.90
7399;DHT22;3740;50.700;7.184;2022-12-18T08:03:51;-4.70;99.90
7399;DHT22;3740;50.700;7.184;2022-12-18T08:06:16;-4.70;99.90
7399;DHT22;3740;50.700;7.184;2022-12-18T08:08:42;-4.70;99.90
7399;DHT22;3740;50.700;7.184;2022-12-18T08:11:07;-4.60;99.90
7399;DHT22;3740;50.700;7.184;2022-12-18T08:13:33;-4.60;99.90
7399;DHT22;3740;50.700;7.184;2022-12-18T08:16:01;-4.50;99.90
7399;DHT22;3740;50.700;7.184;2022-12-18T08:18:27;-4.40;99.90
7399;DHT22;3740;50.700;7.184;2022-12-18T08:20:54;-4.40;99.90
7399;DHT22;3740;50.700;7.184;2022-12-18T08:23:19;-4.40;99.90
7399;DHT22;3740;50.700;7.184;2022-12-18T08:25:45;-4.30;99.90
7399;DHT22;3740;50.700;7.184;2022-12-18T08:28:11;-4.30;99.90
7399;DHT22;3740;50.700;7.184;2022-12-18T08:30:36;-4.20;99.90
7399;DHT22;3740;50.700;7.184;2022-12-18T08:33:02;-4.10;99.90
7399;DHT22;3740;50.700;7.184;2022-12-18T08:35:27;-4.00;99.90
7399;DHT22;3740;50.700;7.184;2022-12-18T08:37:53;-3.90;99.90
7399;DHT22;3740;50.700;7.184;2022-12-18T08:40:19;-3.80;99.90
7399;DHT22;3740;50.700;7.184;2022-12-18T08:42:44;-3.60;99.90
7399;DHT22;3740;50.700;7.184;2022-12-18T08:45:28;-3.50;99.90
7399;DHT22;3740;50.700;7.184;2022-12-18T08:47:54;-3.50;99.90
7399;DHT22;3740;50.700;7.184;2022-12-18T08:50:20;-3.30;99.90
7399;DHT22;3740;50.700;7.184;2022-12-18T08:52:45;-3.30;99.90
7399;DHT22;3740;50.700;7.184;2022-12-18T08:55:11;-3.20;99.90
7399;DHT22;3740;50.700;7.184;2022-12-18T08:57:36;-3.20;99.90
7399;DHT22;3740;50.700;7.184;2022-12-18T09:00:03;-3.20;99.90
7399;DHT22;3740;50.700;7.184;2022-12-18T09:02:29;-3.10;99.90
7399;DHT22;3740;50.700;7.184;2022-12-18T09:04:55;-3.10;99.90
7399;DHT22;3740;50.700;7.184;2022-12-18T09:07:20;-3.10;99.90
7399;DHT22;3740;50.700;7.184;2022-12-18T09:09:46;-3.20;99.90
7399;DHT22;3740;50.700;7.184;2022-12-18T09:12:11;-3.30;99.90
7399;DHT22;3740;50.700;7.184;2022-12-18T09:14:37;-3.30;99.90
7399;DHT22;3740;50.700;7.184;2022-12-18T09:17:02;-3.30;99.90
7399;DHT22;3740;50.700;7.184;2022-12-18T09:19:28;-3.20;99.90
7399;DHT22;3740;50.700;7.184;2022-12-18T09:21:53;-3.20;99.90
7399;DHT22;3740;50.700;7.184;2022-12-18T09:24:19;-3.10;99.90
7399;DHT22;3740;50.700;7.184;2022-12-18T09:26:45;-3.10;99.90
7399;DHT22;3740;50.700;7.184;2022-12-18T09:29:10;-3.00;99.90
7399;DHT22;3740;50.700;7.184;2022-12-18T09:31:36;-3.00;99.90
7399;DHT22;3740;50.700;7.184;2022-12-18T09:34:03;-3.00;99.90
7399;DHT22;3740;50.700;7.184;2022-12-18T09:36:28;-3.00;99.90
7399;DHT22;3740;50.700;7.184;2022-12-18T09:38:54;-2.90;99.90
7399;DHT22;3740;50.700;7.184;2022-12-18T09:44:22;-2.70;99.90
7399;DHT22;3740;50.700;7.184;2022-12-18T09:47:15;-2.50;99.90
7399;DHT22;3740;50.700;7.184;2022-12-18T09:49:44;-2.20;99.90
7399;DHT22;3740;50.700;7.184;2022-12-18T09:54:48;-1.90;99.90
7399;DHT22;3740;50.700;7.184;2022-12-18T09:57:18;-1.70;99.90
7399;DHT22;3740;50.700;7.184;2022-12-18T09:59:50;-1.60;99.90
7399;DHT22;3740;50.700;7.184;2022-12-18T10:02:22;-1.50;99.90
7399;DHT22;3740;50.700;7.184;2022-12-18T10:05:02;-1.30;99.90
7399;DHT22;3740;50.700;7.184;2022-12-18T10:10:33;-1.20;99.90
7399;DHT22;3740;50.700;7.184;2022-12-18T10:13:21;-1.10;99.90
7399;DHT22;3740;50.700;7.184;2022-12-18T10:21:26;-0.90;99.90
7399;DHT22;3740;50.700;7.184;2022-12-18T10:24:20;-1.00;99.90
7399;DHT22;3740;50.700;7.184;2022-12-18T10:26:49;-0.80;99.90
7399;DHT22;3740;50.700;7.184;2022-12-18T10:29:17;-0.70;99.90
7399;DHT22;3740;50.700;7.184;2022-12-18T10:31:42;-0.50;99.90
7399;DHT22;3740;50.700;7.184;2022-12-18T10:34:15;-0.30;99.90
7399;DHT22;3740;50.700;7.184;2022-12-18T10:36:41;-0.20;99.90
7399;DHT22;3740;50.700;7.184;2022-12-18T10:39:22;0.00;99.90
7399;DHT22;3740;50.700;7.184;2022-12-18T10:41:48;0.20;99.90
7399;DHT22;3740;50.700;7.184;2022-12-18T10:44:23;0.40;99.90
7399;DHT22;3740;50.700;7.184;2022-12-18T10:46:54;0.50;99.90
7399;DHT22;3740;50.700;7.184;2022-12-18T10:49:30;0.60;99.90
7399;DHT22;3740;50.700;7.184;2022-12-18T10:52:28;0.60;99.90
7399;DHT22;3740;50.700;7.184;2022-12-18T10:54:59;0.60;99.90
7399;DHT22;3740;50.700;7.184;2022-12-18T10:57:37;0.90;99.90
7399;DHT22;3740;50.700;7.184;2022-12-18T11:00:23;1.00;99.90
7399;DHT22;3740;50.700;7.184;2022-12-18T11:02:50;1.20;99.90
7399;DHT22;3740;50.700;7.184;2022-12-18T11:05:29;1.30;99.90
7399;DHT22;3740;50.700;7.184;2022-12-18T11:07:56;1.40;99.90
7399;DHT22;3740;50.700;7.184;2022-12-18T11:10:30;1.70;99.90
7399;DHT22;3740;50.700;7.184;2022-12-18T11:12:56;1.80;99.90
7399;DHT22;3740;50.700;7.184;2022-12-18T11:15:34;1.90;99.90
7399;DHT22;3740;50.700;7.184;2022-12-18T11:17:59;1.90;99.90
7399;DHT22;3740;50.700;7.184;2022-12-18T11:20:34;1.80;99.90
7399;DHT22;3740;50.700;7.184;2022-12-18T11:23:03;1.70;99.90
7399;DHT22;3740;50.700;7.184;2022-12-18T11:25:29;1.70;99.90
7399;DHT22;3740;50.700;7.184;2022-12-18T11:28:04;1.60;99.90
7399;DHT22;3740;50.700;7.184;2022-12-18T11:30:36;1.70;99.90
7399;DHT22;3740;50.700;7.184;2022-12-18T11:33:21;1.40;99.90
7399;DHT22;3740;50.700;7.184;2022-12-18T11:35:56;1.30;99.90
7399;DHT22;3740;50.700;7.184;2022-12-18T11:38:26;1.50;99.90
7399;DHT22;3740;50.700;7.184;2022-12-18T11:41:03;1.60;99.90
7399;DHT22;3740;50.700;7.184;2022-12-18T11:43:52;1.50;99.90
7399;DHT22;3740;50.700;7.184;2022-12-18T11:46:47;1.50;99.90
7399;DHT22;3740;50.700;7.184;2022-12-18T11:49:20;1.40;99.90
7399;DHT22;3740;50.700;7.184;2022-12-18T11:51:58;1.40;99.90
7399;DHT22;3740;50.700;7.184;2022-12-18T11:54:25;1.40;99.90
7399;DHT22;3740;50.700;7.184;2022-12-18T11:56:56;1.40;99.90
7399;DHT22;3740;50.700;7.184;2022-12-18T11:59:46;1.20;99.90
7399;DHT22;3740;50.700;7.184;2022-12-18T12:02:48;1.20;99.90
7399;DHT22;3740;50.700;7.184;2022-12-18T12:08:15;1.30;99.90
7399;DHT22;3740;50.700;7.184;2022-12-18T12:10:54;1.10;99.90
7399;DHT22;3740;50.700;7.184;2022-12-18T12:13:37;1.00;99.90
7399;DHT22;3740;50.700;7.184;2022-12-18T12:16:15;0.90;99.90
7399;DHT22;3740;50.700;7.184;2022-12-18T12:18:52;0.80;99.90
7399;DHT22;3740;50.700;7.184;2022-12-18T12:21:24;0.70;99.90
7399;DHT22;3740;50.700;7.184;2022-12-18T12:24:04;0.70;99.90
7399;DHT22;3740;50.700;7.184;2022-12-18T12:26:34;0.80;99.90
7399;DHT22;3740;50.700;7.184;2022-12-18T12:40:18;0.90;99.90
7399;DHT22;3740;50.700;7.184;2022-12-18T12:42:49;0.90;99.90
7399;DHT22;3740;50.700;7.184;2022-12-18T12:45:59;1.00;99.90
7399;DHT22;3740;50.700;7.184;2022-12-18T12:51:10;1.10;99.90
7399;DHT22;3740;50.700;7.184;2022-12-18T12:53:38;1.20;99.90
7399;DHT22;3740;50.700;7.184;2022-12-18T12:56:05;1.20;99.90
7399;DHT22;3740;50.700;7.184;2022-12-18T13:04:14;1.00;99.90
7399;DHT22;3740;50.700;7.184;2022-12-18T13:07:19;1.10;99.90
7399;DHT22;3740;50.700;7.184;2022-12-18T13:13:11;1.10;99.90
7399;DHT22;3740;50.700;7.184;2022-12-18T13:15:48;1.20;99.90
7399;DHT22;3740;50.700;7.184;2022-12-18T13:18:19;1.10;99.90
7399;DHT22;3740;50.700;7.184;2022-12-18T13:31:12;1.10;99.90
7399;DHT22;3740;50.700;7.184;2022-12-18T13:33:42;1.10;99.90
7399;DHT22;3740;50.700;7.184;2022-12-18T13:36:31;1.10;99.90
7399;DHT22;3740;50.700;7.184;2022-12-18T13:41:41;0.70;99.90
7399;DHT22;3740;50.700;7.184;2022-12-18T13:44:32;0.60;99.90
7399;DHT22;3740;50.700;7.184;2022-12-18T13:47:00;0.50;99.90
7399;DHT22;3740;50.700;7.184;2022-12-18T13:49:37;0.40;99.90
7399;DHT22;3740;50.700;7.184;2022-12-18T13:52:19;0.20;99.90
7399;DHT22;3740;50.700;7.184;2022-12-18T13:54:50;0.20;99.90
7399;DHT22;3740;50.700;7.184;2022-12-18T13:57:32;0.30;99.90
7399;DHT22;3740;50.700;7.184;2022-12-18T14:02:48;0.40;99.90
7399;DHT22;3740;50.700;7.184;2022-12-18T14:05:28;0.40;99.90
7399;DHT22;3740;50.700;7.184;2022-12-18T14:08:04;0.40;99.90
7399;DHT22;3740;50.700;7.184;2022-12-18T14:10:30;0.40;99.90
7399;DHT22;3740;50.700;7.184;2022-12-18T14:12:56;0.30;99.90
7399;DHT22;3740;50.700;7.184;2022-12-18T14:18:19;0.40;99.90
7399;DHT22;3740;50.700;7.184;2022-12-18T14:20:45;0.30;99.90
7399;DHT22;3740;50.700;7.184;2022-12-18T14:23:35;0.30;99.90
7399;DHT22;3740;50.700;7.184;2022-12-18T14:26:03;0.40;99.90
7399;DHT22;3740;50.700;7.184;2022-12-18T14:28:29;0.40;99.90
7399;DHT22;3740;50.700;7.184;2022-12-18T14:30:55;0.40;99.90
7399;DHT22;3740;50.700;7.184;2022-12-18T14:33:24;0.30;99.90
7399;DHT22;3740;50.700;7.184;2022-12-18T14:35:56;0.20;99.90
7399;DHT22;3740;50.700;7.184;2022-12-18T14:38:27;0.30;99.90
7399;DHT22;3740;50.700;7.184;2022-12-18T14:40:54;0.20;99.90
7399;DHT22;3740;50.700;7.184;2022-12-18T14:43:20;0.20;99.90
7399;DHT22;3740;50.700;7.184;2022-12-18T14:45:46;0.10;99.90
7399;DHT22;3740;50.700;7.184;2022-12-18T14:48:18;0.10;99.90
7399;DHT22;3740;50.700;7.184;2022-12-18T14:50:45;0.20;99.90
7399;DHT22;3740;50.700;7.184;2022-12-18T14:53:22;0.10;99.90
7399;DHT22;3740;50.700;7.184;2022-12-18T14:55:49;0.00;99.90
7399;DHT22;3740;50.700;7.184;2022-12-18T14:58:17;0.00;99.90
7399;DHT22;3740;50.700;7.184;2022-12-18T15:00:43;0.00;99.90
7399;DHT22;3740;50.700;7.184;2022-12-18T15:03:09;0.00;99.90
7399;DHT22;3740;50.700;7.184;2022-12-18T15:05:35;-0.10;99.90
7399;DHT22;3740;50.700;7.184;2022-12-18T15:08:02;-0.10;99.90
7399;DHT22;3740;50.700;7.184;2022-12-18T15:10:32;0.00;99.90
7399;DHT22;3740;50.700;7.184;2022-12-18T15:18:15;-0.20;99.90
7399;DHT22;3740;50.700;7.184;2022-12-18T15:20:49;-0.20;99.90
7399;DHT22;3740;50.700;7.184;2022-12-18T15:25:56;-0.20;99.90
7399;DHT22;3740;50.700;7.184;2022-12-18T15:28:38;-0.30;99.90
7399;DHT22;3740;50.700;7.184;2022-12-18T15:34:00;-0.40;99.90
7399;DHT22;3740;50.700;7.184;2022-12-18T15:36:29;-0.50;99.90
7399;DHT22;3740;50.700;7.184;2022-12-18T15:38:56;-0.50;99.90
7399;DHT22;3740;50.700;7.184;2022-12-18T15:41:23;-0.60;99.90
7399;DHT22;3740;50.700;7.184;2022-12-18T15:43:51;-0.50;99.90
7399;DHT22;3740;50.700;7.184;2022-12-18T15:46:18;-0.50;99.90
7399;DHT22;3740;50.700;7.184;2022-12-18T15:48:49;-0.50;99.90
7399;DHT22;3740;50.700;7.184;2022-12-18T15:51:18;-0.60;99.90
7399;DHT22;3740;50.700;7.184;2022-12-18T15:53:46;-0.60;99.90
7399;DHT22;3740;50.700;7.184;2022-12-18T15:56:13;-0.60;99.90
7399;DHT22;3740;50.700;7.184;2022-12-18T15:58:58;-0.60;99.90
7399;DHT22;3740;50.700;7.184;2022-12-18T16:01:26;-0.60;99.90
7399;DHT22;3740;50.700;7.184;2022-12-18T16:03:52;-0.60;99.90
7399;DHT22;3740;50.700;7.184;2022-12-18T16:06:18;-0.60;99.90
7399;DHT22;3740;50.700;7.184;2022-12-18T16:08:44;-0.50;99.90
7399;DHT22;3740;50.700;7.184;2022-12-18T16:11:31;-0.60;99.90
7399;DHT22;3740;50.700;7.184;2022-12-18T16:14:26;-0.70;99.90
7399;DHT22;3740;50.700;7.184;2022-12-18T16:16:55;-0.60;99.90
7399;DHT22;3740;50.700;7.184;2022-12-18T16:19:21;-0.60;99.90
7399;DHT22;3740;50.700;7.184;2022-12-18T16:21:48;-0.60;99.90
7399;DHT22;3740;50.700;7.184;2022-12-18T16:24:19;-0.60;99.90
7399;DHT22;3740;50.700;7.184;2022-12-18T16:26:47;-0.60;99.90
7399;DHT22;3740;50.700;7.184;2022-12-18T16:29:14;-0.60;99.90
7399;DHT22;3740;50.700;7.184;2022-12-18T16:31:40;-0.60;99.90
7399;DHT22;3740;50.700;7.184;2022-12-18T16:34:23;-0.60;99.90
7399;DHT22;3740;50.700;7.184;2022-12-18T16:36:51;-0.60;99.90
7399;DHT22;3740;50.700;7.184;2022-12-18T16:39:18;-0.60;99.90
7399;DHT22;3740;50.700;7.184;2022-12-18T16:41:44;-0.60;99.90
7399;DHT22;3740;50.700;7.184;2022-12-18T16:44:10;-0.60;99.90
7399;DHT22;3740;50.700;7.184;2022-12-18T16:46:37;-0.60;99.90
7399;DHT22;3740;50.700;7.184;2022-12-18T16:49:03;-0.50;99.90
7399;DHT22;3740;50.700;7.184;2022-12-18T16:51:29;-0.60;99.90
7399;DHT22;3740;50.700;7.184;2022-12-18T16:53:55;-0.60;99.90
7399;DHT22;3740;50.700;7.184;2022-12-18T16:56:20;-0.60;99.90
7399;DHT22;3740;50.700;7.184;2022-12-18T16:58:50;-0.50;99.90
7399;DHT22;3740;50.700;7.184;2022-12-18T17:01:16;-0.50;99.90
7399;DHT22;3740;50.700;7.184;2022-12-18T17:03:42;-0.50;99.90
7399;DHT22;3740;50.700;7.184;2022-12-18T17:06:07;-0.50;99.90
7399;DHT22;3740;50.700;7.184;2022-12-18T17:08:33;-0.50;99.90
7399;DHT22;3740;50.700;7.184;2022-12-18T17:11:06;-0.60;99.90
7399;DHT22;3740;50.700;7.184;2022-12-18T17:13:32;-0.60;99.90
7399;DHT22;3740;50.700;7.184;2022-12-18T17:16:08;-0.70;99.90
7399;DHT22;3740;50.700;7.184;2022-12-18T17:18:34;-0.70;99.90
7399;DHT22;3740;50.700;7.184;2022-12-18T17:21:01;-0.80;99.90
7399;DHT22;3740;50.700;7.184;2022-12-18T17:23:27;-0.80;99.90
7399;DHT22;3740;50.700;7.184;2022-12-18T17:25:54;-0.80;99.90
7399;DHT22;3740;50.700;7.184;2022-12-18T17:28:21;-0.90;99.90
7399;DHT22;3740;50.700;7.184;2022-12-18T17:30:47;-0.90;99.90
7399;DHT22;3740;50.700;7.184;2022-12-18T17:33:12;-0.90;99.90
7399;DHT22;3740;50.700;7.184;2022-12-18T17:35:38;-0.90;99.90
7399;DHT22;3740;50.700;7.184;2022-12-18T17:38:03;-0.80;99.90
7399;DHT22;3740;50.700;7.184;2022-12-18T17:40:32;-0.80;99.90
7399;DHT22;3740;50.700;7.184;2022-12-18T17:42:57;-0.90;99.90
7399;DHT22;3740;50.700;7.184;2022-12-18T17:45:24;-1.00;99.90
7399;DHT22;3740;50.700;7.184;2022-12-18T17:47:50;-1.10;99.90
7399;DHT22;3740;50.700;7.184;2022-12-18T17:50:16;-1.00;99.90